sensor_id;sensor_type;location;lat;lon;timestamp;temperature;humidity
2523;DHT22;1272;53.332;9.860;2023-05-24T01:55:27;9.50;99.90
2523;DHT22;1272;53.332;9.860;2023-05-24T01:57:57;9.40;99.90
2523;DHT22;1272;53.332;9.860;2023-05-24T02:00:25;9.40;1.00
2523;DHT22;1272;53.332;9.860;2023-05-24T02:02:51;9.40;1.00
2523;DHT22;1272;53.332;9.860;2023-05-24T02:05:17;9.50;1.00
2523;DHT22;1272;53.332;9.860;2023-05-24T02:07:42;9.50;1.00
2523;DHT22;1272;53.332;9.860;2023-05-24T02:10:08;9.40;1.00
2523;DHT22;1272;53.332;9.860;2023-05-24T02:12:34;9.50;1.00
2523;DHT22;1272;53.332;9.860;2023-05-24T02:15:00;9.40;1.00
2523;DHT22;1272;53.332;9.860;2023-05-24T02:17:26;9.30;99.90
2523;DHT22;1272;53.332;9.860;2023-05-24T02:19:52;9.30;99.90
2523;DHT22;1272;53.332;9.860;2023-05-24T02:22:20;9.30;99.90
2523;DHT22;1272;53.332;9.860;2023-05-24T02:24:47;9.30;99.90
2523;DHT22;1272;53.332;9.860;2023-05-24T02:27:13;9.30;99.90
2523;DHT22;1272;53.332;9.860;2023-05-24T02:29:38;9.30;99.90
2523;DHT22;1272;53.332;9.860;2023-05-24T02:32:06;9.30;1.00
2523;DHT22;1272;53.332;9.860;2023-05-24T02:34:32;9.40;1.00
2523;DHT22;1272;53.332;9.860;2023-05-24T02:36:58;9.40;1.00
2523;DHT22;1272;53.332;9.860;2023-05-24T02:39:23;9.40;1.00
2523;DHT22;1272;53.332;9.860;2023-05-24T02:41:49;9.40;99.90
2523;DHT22;1272;53.332;9.860;2023-05-24T02:44:15;9.40;1.00
2523;DHT22;1272;53.332;9.860;2023-05-24T02:46:41;9.40;1.00
2523;DHT22;1272;53.332;9.860;2023-05-24T02:49:06;9.40;1.00
2523;DHT22;1272;53.332;9.860;2023-05-24T02:51:32;9.40;99.90
2523;DHT22;1272;53.332;9.860;2023-05-24T02:53:58;9.40;99.90
2523;DHT22;1272;53.332;9.860;2023-05-24T02:56:23;9.40;1.00
2523;DHT22;1272;53.332;9.860;2023-05-24T02:58:51;9.40;1.00
2523;DHT22;1272;53.332;9.860;2023-05-24T03:01:18;9.40;99.90
2523;DHT22;1272;53.332;9.860;2023-05-24T03:03:45;9.40;99.90
2523;DHT22;1272;53.332;9.860;2023-05-24T03:06:11;9.30;1.00
2523;DHT22;1272;53.332;9.860;2023-05-24T03:08:38;9.30;1.00
2523;DHT22;1272;53.332;9.860;2023-05-24T03:11:04;9.30;1.00
2523;DHT22;1272;53.332;9.860;2023-05-24T03:13:30;9.30;1.00
2523;DHT22;1272;53.332;9.860;2023-05-24T03:15:56;9.30;1.00
2523;DHT22;1272;53.332;9.860;2023-05-24T03:18:22;9.30;1.00
2523;DHT22;1272;53.332;9.860;2023-05-24T03:20:47;9.30;1.00
2523;DHT22;1272;53.332;9.860;2023-05-24T03:23:13;9.30;1.00
2523;DHT22;1272;53.332;9.860;2023-05-24T03:25:39;9.30;1.00
2523;DHT22;1272;53.332;9.860;2023-05-24T03:28:05;9.40;1.00
2523;DHT22;1272;53.332;9.860;2023-05-24T03:30:32;9.30;1.00
2523;DHT22;1272;53.332;9.860;2023-05-24T03:32:58;9.30;1.00
2523;DHT22;1272;53.332;9.860;2023-05-24T03:35:24;9.40;1.00
2523;DHT22;1272;53.332;9.860;2023-05-24T03:37:49;9.30;1.00
2523;DHT22;1272;53.332;9.860;2023-05-24T03:40:15;9.40;1.00
2523;DHT22;1272;53.332;9.860;2023-05-24T03:42:41;9.40;1.00
2523;DHT22;1272;53.332;9.860;2023-05-24T03:45:07;9.30;1.00
2523;DHT22;1272;53.332;9.860;2023-05-24T03:47:33;9.30;1.00
2523;DHT22;1272;53.332;9.860;2023-05-24T03:49:59;9.40;19.40
2523;DHT22;1272;53.332;9.860;2023-05-24T03:52:24;9.40;37.80
2523;DHT22;1272;53.332;9.860;2023-05-24T03:54:50;9.40;35.30
2523;DHT22;1272;53.332;9.860;2023-05-24T03:57:16;9.40;56.80
2523;DHT22;1272;53.332;9.860;2023-05-24T03:59:42;9.50;99.90
2523;DHT22;1272;53.332;9.860;2023-05-24T04:02:08;9.50;99.90
2523;DHT22;1272;53.332;9.860;2023-05-24T04:04:34;9.50;99.90
2523;DHT22;1272;53.332;9.860;2023-05-24T04:07:01;9.50;99.90
2523;DHT22;1272;53.332;9.860;2023-05-24T04:09:27;9.60;99.90
2523;DHT22;1272;53.332;9.860;2023-05-24T04:11:52;9.50;99.90
2523;DHT22;1272;53.332;9.860;2023-05-24T04:14:18;9.50;99.90
2523;DHT22;1272;53.332;9.860;2023-05-24T04:16:44;9.60;99.90
2523;DHT22;1272;53.332;9.860;2023-05-24T04:19:10;9.50;99.90
2523;DHT22;1272;53.332;9.860;2023-05-24T04:21:38;9.50;99.90
2523;DHT22;1272;53.332;9.860;2023-05-24T04:24:04;9.50;99.90
2523;DHT22;1272;53.332;9.860;2023-05-24T04:26:31;9.40;99.90
2523;DHT22;1272;53.332;9.860;2023-05-24T04:28:59;9.40;99.90
2523;DHT22;1272;53.332;9.860;2023-05-24T04:31:24;9.40;99.90
2523;DHT22;1272;53.332;9.860;2023-05-24T04:33:53;9.50;99.90
2523;DHT22;1272;53.332;9.860;2023-05-24T04:36:20;9.50;99.90
2523;DHT22;1272;53.332;9.860;2023-05-24T04:38:47;9.50;99.90
2523;DHT22;1272;53.332;9.860;2023-05-24T04:41:12;9.50;99.90
2523;DHT22;1272;53.332;9.860;2023-05-24T04:43:38;9.50;99.90
2523;DHT22;1272;53.332;9.860;2023-05-24T04:46:05;9.50;99.90
2523;DHT22;1272;53.332;9.860;2023-05-24T04:51:57;9.50;99.90
2523;DHT22;1272;53.332;9.860;2023-05-24T04:54:23;9.60;99.90
2523;DHT22;1272;53.332;9.860;2023-05-24T04:59:57;9.50;99.90
2523;DHT22;1272;53.332;9.860;2023-05-24T05:02:23;9.50;99.90
2523;DHT22;1272;53.332;9.860;2023-05-24T05:04:51;9.50;99.90
2523;DHT22;1272;53.332;9.860;2023-05-24T05:07:17;9.50;99.90
2523;DHT22;1272;53.332;9.860;2023-05-24T05:09:43;9.60;99.90
2523;DHT22;1272;53.332;9.860;2023-05-24T05:12:20;9.50;99.90
2523;DHT22;1272;53.332;9.860;2023-05-24T05:14:46;9.60;99.90
2523;DHT22;1272;53.332;9.860;2023-05-24T05:17:12;9.60;99.90
2523;DHT22;1272;53.332;9.860;2023-05-24T05:19:38;9.70;99.90
2523;DHT22;1272;53.332;9.860;2023-05-24T05:22:03;9.60;99.90
2523;DHT22;1272;53.332;9.860;2023-05-24T05:24:29;9.60;99.90
2523;DHT22;1272;53.332;9.860;2023-05-24T05:26:56;9.50;99.90
2523;DHT22;1272;53.332;9.860;2023-05-24T05:29:21;9.60;99.90
2523;DHT22;1272;53.332;9.860;2023-05-24T05:31:47;9.70;99.90
2523;DHT22;1272;53.332;9.860;2023-05-24T05:34:12;9.70;99.90
2523;DHT22;1272;53.332;9.860;2023-05-24T05:36:38;9.70;99.90
2523;DHT22;1272;53.332;9.860;2023-05-24T05:39:06;9.70;99.90
2523;DHT22;1272;53.332;9.860;2023-05-24T05:41:36;9.60;99.90
2523;DHT22;1272;53.332;9.860;2023-05-24T05:44:02;9.60;99.90
2523;DHT22;1272;53.332;9.860;2023-05-24T05:46:28;9.60;99.90
2523;DHT22;1272;53.332;9.860;2023-05-24T05:48:53;9.70;99.90
2523;DHT22;1272;53.332;9.860;2023-05-24T05:51:19;9.70;99.90
2523;DHT22;1272;53.332;9.860;2023-05-24T05:53:45;9.70;99.90
2523;DHT22;1272;53.332;9.860;2023-05-24T05:56:10;9.70;99.90
2523;DHT22;1272;53.332;9.860;2023-05-24T05:58:36;9.70;99.90
2523;DHT22;1272;53.332;9.860;2023-05-24T06:01:03;9.60;99.90
2523;DHT22;1272;53.332;9.860;2023-05-24T06:03:29;9.70;99.90
2523;DHT22;1272;53.332;9.860;2023-05-24T06:05:55;9.70;99.90
2523;DHT22;1272;53.332;9.860;2023-05-24T06:08:20;9.80;99.90
2523;DHT22;1272;53.332;9.860;2023-05-24T06:10:46;9.80;99.90
2523;DHT22;1272;53.332;9.860;2023-05-24T06:13:12;9.80;99.90
2523;DHT22;1272;53.332;9.860;2023-05-24T06:15:38;9.80;99.90
2523;DHT22;1272;53.332;9.860;2023-05-24T06:18:04;9.90;99.90
2523;DHT22;1272;53.332;9.860;2023-05-24T06:20:30;9.90;99.90
2523;DHT22;1272;53.332;9.860;2023-05-24T06:22:56;9.90;99.90
2523;DHT22;1272;53.332;9.860;2023-05-24T06:25:22;9.90;99.90
2523;DHT22;1272;53.332;9.860;2023-05-24T06:27:49;9.90;99.90
2523;DHT22;1272;53.332;9.860;2023-05-24T06:30:16;10.00;99.90
2523;DHT22;1272;53.332;9.860;2023-05-24T06:32:42;10.00;99.90
2523;DHT22;1272;53.332;9.860;2023-05-24T06:35:08;10.00;99.90
2523;DHT22;1272;53.332;9.860;2023-05-24T06:37:34;10.00;99.90
2523;DHT22;1272;53.332;9.860;2023-05-24T06:39:59;10.00;99.90
2523;DHT22;1272;53.332;9.860;2023-05-24T06:42:25;10.10;99.90
2523;DHT22;1272;53.332;9.860;2023-05-24T06:44:51;10.10;99.90
2523;DHT22;1272;53.332;9.860;2023-05-24T06:47:16;10.10;99.90
2523;DHT22;1272;53.332;9.860;2023-05-24T06:49:42;10.20;99.90
2523;DHT22;1272;53.332;9.860;2023-05-24T06:52:08;10.20;99.90
2523;DHT22;1272;53.332;9.860;2023-05-24T06:54:34;10.20;99.90
2523;DHT22;1272;53.332;9.860;2023-05-24T06:56:59;10.30;99.90
2523;DHT22;1272;53.332;9.860;2023-05-24T06:59:25;10.30;99.90
2523;DHT22;1272;53.332;9.860;2023-05-24T07:01:51;10.30;99.90
2523;DHT22;1272;53.332;9.860;2023-05-24T07:04:22;10.30;99.90
2523;DHT22;1272;53.332;9.860;2023-05-24T07:06:49;10.40;99.90
2523;DHT22;1272;53.332;9.860;2023-05-24T07:09:16;10.30;99.90
2523;DHT22;1272;53.332;9.860;2023-05-24T07:11:42;10.30;99.90
2523;DHT22;1272;53.332;9.860;2023-05-24T07:14:08;10.20;99.90
2523;DHT22;1272;53.332;9.860;2023-05-24T07:16:33;10.30;99.90
2523;DHT22;1272;53.332;9.860;2023-05-24T07:18:59;10.30;99.90
2523;DHT22;1272;53.332;9.860;2023-05-24T07:21:25;10.30;99.90
2523;DHT22;1272;53.332;9.860;2023-05-24T07:23:51;10.40;99.90
2523;DHT22;1272;53.332;9.860;2023-05-24T07:26:16;10.50;99.90
2523;DHT22;1272;53.332;9.860;2023-05-24T07:28:42;10.60;99.90
2523;DHT22;1272;53.332;9.860;2023-05-24T07:31:08;10.60;99.90
2523;DHT22;1272;53.332;9.860;2023-05-24T07:33:37;10.60;99.90
2523;DHT22;1272;53.332;9.860;2023-05-24T07:36:06;10.60;99.90
2523;DHT22;1272;53.332;9.860;2023-05-24T07:38:33;10.70;99.90
2523;DHT22;1272;53.332;9.860;2023-05-24T07:41:00;10.60;99.90
2523;DHT22;1272;53.332;9.860;2023-05-24T07:43:26;10.60;99.90
2523;DHT22;1272;53.332;9.860;2023-05-24T07:45:52;10.70;99.90
2523;DHT22;1272;53.332;9.860;2023-05-24T07:48:22;10.80;99.90
2523;DHT22;1272;53.332;9.860;2023-05-24T07:50:49;10.90;99.90
2523;DHT22;1272;53.332;9.860;2023-05-24T07:53:16;10.90;99.90
2523;DHT22;1272;53.332;9.860;2023-05-24T07:55:42;11.00;99.90
2523;DHT22;1272;53.332;9.860;2023-05-24T07:58:11;11.00;99.90
2523;DHT22;1272;53.332;9.860;2023-05-24T08:00:36;11.00;99.90
2523;DHT22;1272;53.332;9.860;2023-05-24T08:03:03;11.00;99.90
2523;DHT22;1272;53.332;9.860;2023-05-24T08:05:30;11.00;99.90
2523;DHT22;1272;53.332;9.860;2023-05-24T08:07:56;11.20;99.90
2523;DHT22;1272;53.332;9.860;2023-05-24T08:10:21;11.20;99.90
2523;DHT22;1272;53.332;9.860;2023-05-24T08:12:48;11.20;99.90
2523;DHT22;1272;53.332;9.860;2023-05-24T08:15:15;11.20;99.90
2523;DHT22;1272;53.332;9.860;2023-05-24T08:17:41;11.30;99.90
2523;DHT22;1272;53.332;9.860;2023-05-24T08:20:08;11.30;99.90
2523;DHT22;1272;53.332;9.860;2023-05-24T08:22:40;11.30;99.90
2523;DHT22;1272;53.332;9.860;2023-05-24T08:25:07;11.30;99.90
2523;DHT22;1272;53.332;9.860;2023-05-24T08:27:33;11.30;99.90
2523;DHT22;1272;53.332;9.860;2023-05-24T08:29:59;11.30;99.90
2523;DHT22;1272;53.332;9.860;2023-05-24T08:32:25;11.30;99.90
2523;DHT22;1272;53.332;9.860;2023-05-24T08:34:51;11.40;99.90
2523;DHT22;1272;53.332;9.860;2023-05-24T08:37:17;11.40;99.90
2523;DHT22;1272;53.332;9.860;2023-05-24T08:39:45;11.40;99.90
2523;DHT22;1272;53.332;9.860;2023-05-24T08:42:11;11.50;99.90
2523;DHT22;1272;53.332;9.860;2023-05-24T08:44:58;11.50;99.90
2523;DHT22;1272;53.332;9.860;2023-05-24T08:47:26;11.60;99.90
2523;DHT22;1272;53.332;9.860;2023-05-24T08:49:54;11.60;99.90
2523;DHT22;1272;53.332;9.860;2023-05-24T08:52:21;11.60;99.90
2523;DHT22;1272;53.332;9.860;2023-05-24T08:54:48;11.60;99.90
2523;DHT22;1272;53.332;9.860;2023-05-24T08:57:15;11.60;99.90
2523;DHT22;1272;53.332;9.860;2023-05-24T08:59:41;11.70;99.90
2523;DHT22;1272;53.332;9.860;2023-05-24T09:02:10;11.80;99.90
2523;DHT22;1272;53.332;9.860;2023-05-24T09:04:41;11.70;99.90
2523;DHT22;1272;53.332;9.860;2023-05-24T09:07:09;11.70;99.90
2523;DHT22;1272;53.332;9.860;2023-05-24T09:09:37;11.70;99.90
2523;DHT22;1272;53.332;9.860;2023-05-24T09:12:10;11.70;99.90
2523;DHT22;1272;53.332;9.860;2023-05-24T09:14:44;11.70;99.90
2523;DHT22;1272;53.332;9.860;2023-05-24T09:17:11;11.70;99.90
2523;DHT22;1272;53.332;9.860;2023-05-24T09:19:38;11.80;99.90
2523;DHT22;1272;53.332;9.860;2023-05-24T09:22:05;11.80;99.90
2523;DHT22;1272;53.332;9.860;2023-05-24T09:24:32;11.80;99.90
2523;DHT22;1272;53.332;9.860;2023-05-24T09:27:05;11.80;99.90
2523;DHT22;1272;53.332;9.860;2023-05-24T09:29:34;11.80;99.90
2523;DHT22;1272;53.332;9.860;2023-05-24T09:32:01;11.80;99.90
2523;DHT22;1272;53.332;9.860;2023-05-24T09:34:36;11.90;99.90
2523;DHT22;1272;53.332;9.860;2023-05-24T09:37:02;12.00;99.90
2523;DHT22;1272;53.332;9.860;2023-05-24T09:39:28;12.20;99.90
2523;DHT22;1272;53.332;9.860;2023-05-24T09:41:54;12.30;99.90
2523;DHT22;1272;53.332;9.860;2023-05-24T09:44:24;12.20;99.90
2523;DHT22;1272;53.332;9.860;2023-05-24T09:46:59;12.30;99.90
2523;DHT22;1272;53.332;9.860;2023-05-24T09:49:26;12.30;99.90
2523;DHT22;1272;53.332;9.860;2023-05-24T09:51:51;12.30;99.90
2523;DHT22;1272;53.332;9.860;2023-05-24T09:54:17;12.50;99.90
2523;DHT22;1272;53.332;9.860;2023-05-24T09:56:45;12.60;99.90
2523;DHT22;1272;53.332;9.860;2023-05-24T09:59:11;12.70;99.90
2523;DHT22;1272;53.332;9.860;2023-05-24T10:01:36;12.70;99.90
2523;DHT22;1272;53.332;9.860;2023-05-24T10:04:03;13.00;99.90
2523;DHT22;1272;53.332;9.860;2023-05-24T10:06:34;12.90;99.90
2523;DHT22;1272;53.332;9.860;2023-05-24T10:09:03;13.00;99.90
2523;DHT22;1272;53.332;9.860;2023-05-24T10:11:34;13.10;99.90
2523;DHT22;1272;53.332;9.860;2023-05-24T10:14:03;13.10;99.90
2523;DHT22;1272;53.332;9.860;2023-05-24T10:16:29;13.10;99.90
2523;DHT22;1272;53.332;9.860;2023-05-24T10:18:55;13.10;99.90
2523;DHT22;1272;53.332;9.860;2023-05-24T10:21:22;13.10;99.90
2523;DHT22;1272;53.332;9.860;2023-05-24T10:23:51;13.10;99.90
2523;DHT22;1272;53.332;9.860;2023-05-24T10:26:23;13.10;99.90
2523;DHT22;1272;53.332;9.860;2023-05-24T10:28:54;13.10;99.90
2523;DHT22;1272;53.332;9.860;2023-05-24T10:31:35;13.00;99.90
2523;DHT22;1272;53.332;9.860;2023-05-24T10:34:04;13.00;99.90
2523;DHT22;1272;53.332;9.860;2023-05-24T10:36:31;13.00;99.90
2523;DHT22;1272;53.332;9.860;2023-05-24T10:38:58;13.00;99.90
2523;DHT22;1272;53.332;9.860;2023-05-24T10:41:27;13.00;99.90
2523;DHT22;1272;53.332;9.860;2023-05-24T10:43:53;12.90;99.90
2523;DHT22;1272;53.332;9.860;2023-05-24T10:46:19;12.90;99.90
2523;DHT22;1272;53.332;9.860;2023-05-24T10:49:07;12.90;99.90
2523;DHT22;1272;53.332;9.860;2023-05-24T10:51:37;12.90;99.90
2523;DHT22;1272;53.332;9.860;2023-05-24T10:54:14;13.00;99.90
2523;DHT22;1272;53.332;9.860;2023-05-24T10:56:43;13.10;99.90
2523;DHT22;1272;53.332;9.860;2023-05-24T10:59:08;13.20;99.90
2523;DHT22;1272;53.332;9.860;2023-05-24T11:01:54;13.40;99.90
2523;DHT22;1272;53.332;9.860;2023-05-24T11:04:20;13.50;99.90
2523;DHT22;1272;53.332;9.860;2023-05-24T11:06:47;13.50;30.00
2523;DHT22;1272;53.332;9.860;2023-05-24T11:09:14;13.50;1.00
2523;DHT22;1272;53.332;9.860;2023-05-24T11:11:43;13.60;1.00
2523;DHT22;1272;53.332;9.860;2023-05-24T11:14:11;13.50;1.00
2523;DHT22;1272;53.332;9.860;2023-05-24T11:16:37;13.50;1.00
2523;DHT22;1272;53.332;9.860;2023-05-24T11:19:22;13.50;18.70
2523;DHT22;1272;53.332;9.860;2023-05-24T11:21:50;13.40;1.00
2523;DHT22;1272;53.332;9.860;2023-05-24T11:24:18;13.50;99.90
2523;DHT22;1272;53.332;9.860;2023-05-24T11:26:45;13.40;1.00
2523;DHT22;1272;53.332;9.860;2023-05-24T11:29:14;13.40;1.00
2523;DHT22;1272;53.332;9.860;2023-05-24T11:31:57;13.40;53.60
2523;DHT22;1272;53.332;9.860;2023-05-24T11:34:28;13.50;37.10
2523;DHT22;1272;53.332;9.860;2023-05-24T11:36:55;13.50;35.10
2523;DHT22;1272;53.332;9.860;2023-05-24T11:39:21;13.50;99.90
2523;DHT22;1272;53.332;9.860;2023-05-24T11:41:48;13.40;1.00
2523;DHT22;1272;53.332;9.860;2023-05-24T11:44:16;13.40;1.00
2523;DHT22;1272;53.332;9.860;2023-05-24T11:46:46;13.50;1.00
2523;DHT22;1272;53.332;9.860;2023-05-24T11:49:13;13.50;99.90
2523;DHT22;1272;53.332;9.860;2023-05-24T11:51:40;13.40;99.90
2523;DHT22;1272;53.332;9.860;2023-05-24T11:54:06;13.40;1.00
2523;DHT22;1272;53.332;9.860;2023-05-24T11:56:31;13.40;1.00
2523;DHT22;1272;53.332;9.860;2023-05-24T11:59:16;13.40;1.00
2523;DHT22;1272;53.332;9.860;2023-05-24T12:01:43;13.40;22.80
2523;DHT22;1272;53.332;9.860;2023-05-24T12:04:09;13.40;99.90
2523;DHT22;1272;53.332;9.860;2023-05-24T12:06:41;13.50;99.90
2523;DHT22;1272;53.332;9.860;2023-05-24T12:09:08;13.60;99.90
2523;DHT22;1272;53.332;9.860;2023-05-24T12:11:42;13.60;77.80
2523;DHT22;1272;53.332;9.860;2023-05-24T12:14:28;13.80;47.10
2523;DHT22;1272;53.332;9.860;2023-05-24T12:16:58;13.80;1.00
2523;DHT22;1272;53.332;9.860;2023-05-24T12:19:29;13.90;99.90
2523;DHT22;1272;53.332;9.860;2023-05-24T12:21:56;14.10;99.90
2523;DHT22;1272;53.332;9.860;2023-05-24T12:24:22;14.10;1.00
2523;DHT22;1272;53.332;9.860;2023-05-24T12:26:49;14.10;99.90
2523;DHT22;1272;53.332;9.860;2023-05-24T12:29:15;14.20;54.40
2523;DHT22;1272;53.332;9.860;2023-05-24T12:31:43;14.30;99.90
2523;DHT22;1272;53.332;9.860;2023-05-24T12:34:18;14.40;1.00
2523;DHT22;1272;53.332;9.860;2023-05-24T12:36:45;14.30;99.90
2523;DHT22;1272;53.332;9.860;2023-05-24T12:41:44;14.20;99.90
2523;DHT22;1272;53.332;9.860;2023-05-24T12:44:11;14.20;7.10
2523;DHT22;1272;53.332;9.860;2023-05-24T12:46:36;14.30;42.10
2523;DHT22;1272;53.332;9.860;2023-05-24T12:49:03;14.30;1.00
2523;DHT22;1272;53.332;9.860;2023-05-24T12:51:29;14.40;99.90
2523;DHT22;1272;53.332;9.860;2023-05-24T12:53:55;14.40;1.00
2523;DHT22;1272;53.332;9.860;2023-05-24T12:56:21;14.50;1.00
2523;DHT22;1272;53.332;9.860;2023-05-24T12:58:49;14.60;1.00
2523;DHT22;1272;53.332;9.860;2023-05-24T13:01:15;14.70;1.00
2523;DHT22;1272;53.332;9.860;2023-05-24T13:03:40;14.70;1.00
2523;DHT22;1272;53.332;9.860;2023-05-24T13:06:06;14.80;52.70
2523;DHT22;1272;53.332;9.860;2023-05-24T13:08:32;14.80;1.00
2523;DHT22;1272;53.332;9.860;2023-05-24T13:10:58;14.80;99.90
2523;DHT22;1272;53.332;9.860;2023-05-24T13:13:24;14.80;99.90
2523;DHT22;1272;53.332;9.860;2023-05-24T13:15:49;14.90;99.90
2523;DHT22;1272;53.332;9.860;2023-05-24T13:18:15;14.90;99.90
2523;DHT22;1272;53.332;9.860;2023-05-24T13:20:41;14.90;1.00
2523;DHT22;1272;53.332;9.860;2023-05-24T13:23:07;14.90;1.00
2523;DHT22;1272;53.332;9.860;2023-05-24T13:25:32;14.90;1.00
2523;DHT22;1272;53.332;9.860;2023-05-24T13:27:58;14.90;1.00
2523;DHT22;1272;53.332;9.860;2023-05-24T13:30:24;14.90;1.00
2523;DHT22;1272;53.332;9.860;2023-05-24T13:32:53;15.00;1.00
2523;DHT22;1272;53.332;9.860;2023-05-24T13:35:19;15.00;99.90
2523;DHT22;1272;53.332;9.860;2023-05-24T13:37:46;15.00;99.90
2523;DHT22;1272;53.332;9.860;2023-05-24T13:40:12;15.10;99.90
2523;DHT22;1272;53.332;9.860;2023-05-24T13:42:38;15.10;1.00
2523;DHT22;1272;53.332;9.860;2023-05-24T13:45:05;15.20;1.00
2523;DHT22;1272;53.332;9.860;2023-05-24T13:47:30;15.40;99.90
2523;DHT22;1272;53.332;9.860;2023-05-24T13:49:56;15.30;99.90
2523;DHT22;1272;53.332;9.860;2023-05-24T13:52:22;15.30;92.50
2523;DHT22;1272;53.332;9.860;2023-05-24T13:54:48;15.20;99.90
2523;DHT22;1272;53.332;9.860;2023-05-24T13:57:14;15.20;99.90
2523;DHT22;1272;53.332;9.860;2023-05-24T13:59:40;15.30;99.90
2523;DHT22;1272;53.332;9.860;2023-05-24T14:02:07;15.40;99.90
2523;DHT22;1272;53.332;9.860;2023-05-24T14:04:33;15.50;1.00
2523;DHT22;1272;53.332;9.860;2023-05-24T14:06:58;15.50;71.40
2523;DHT22;1272;53.332;9.860;2023-05-24T14:09:24;15.60;99.90
2523;DHT22;1272;53.332;9.860;2023-05-24T14:11:51;15.70;1.00
2523;DHT22;1272;53.332;9.860;2023-05-24T14:14:16;15.70;1.00
2523;DHT22;1272;53.332;9.860;2023-05-24T14:16:42;15.70;1.00
2523;DHT22;1272;53.332;9.860;2023-05-24T14:19:08;15.70;1.00
2523;DHT22;1272;53.332;9.860;2023-05-24T14:21:33;15.70;1.00
2523;DHT22;1272;53.332;9.860;2023-05-24T14:24:00;15.70;1.00
2523;DHT22;1272;53.332;9.860;2023-05-24T14:26:26;15.70;1.00
2523;DHT22;1272;53.332;9.860;2023-05-24T14:28:52;15.70;1.00
2523;DHT22;1272;53.332;9.860;2023-05-24T14:31:17;15.70;1.00
2523;DHT22;1272;53.332;9.860;2023-05-24T14:33:43;15.60;1.00
2523;DHT22;1272;53.332;9.860;2023-05-24T14:36:09;15.60;1.00
2523;DHT22;1272;53.332;9.860;2023-05-24T14:38:35;15.50;1.00
2523;DHT22;1272;53.332;9.860;2023-05-24T14:41:01;15.50;1.00
2523;DHT22;1272;53.332;9.860;2023-05-24T14:43:27;15.50;1.00
2523;DHT22;1272;53.332;9.860;2023-05-24T14:45:52;15.60;1.00
2523;DHT22;1272;53.332;9.860;2023-05-24T14:48:18;15.60;1.00
2523;DHT22;1272;53.332;9.860;2023-05-24T14:50:44;15.70;1.00
2523;DHT22;1272;53.332;9.860;2023-05-24T14:53:09;15.80;1.00
2523;DHT22;1272;53.332;9.860;2023-05-24T14:55:38;15.80;1.00
2523;DHT22;1272;53.332;9.860;2023-05-24T14:58:05;15.90;99.90
2523;DHT22;1272;53.332;9.860;2023-05-24T15:00:36;15.90;99.90
2523;DHT22;1272;53.332;9.860;2023-05-24T15:03:03;16.00;99.90
2523;DHT22;1272;53.332;9.860;2023-05-24T15:05:33;15.90;78.50
2523;DHT22;1272;53.332;9.860;2023-05-24T15:07:59;15.90;99.90
2523;DHT22;1272;53.332;9.860;2023-05-24T15:10:25;15.90;99.90
2523;DHT22;1272;53.332;9.860;2023-05-24T15:12:51;15.80;99.90
2523;DHT22;1272;53.332;9.860;2023-05-24T15:15:16;15.80;99.90
2523;DHT22;1272;53.332;9.860;2023-05-24T15:17:43;15.80;99.90
2523;DHT22;1272;53.332;9.860;2023-05-24T15:20:09;15.80;99.90
2523;DHT22;1272;53.332;9.860;2023-05-24T15:22:35;15.90;99.90
2523;DHT22;1272;53.332;9.860;2023-05-24T15:25:00;16.00;99.90
2523;DHT22;1272;53.332;9.860;2023-05-24T15:27:26;16.00;62.50
2523;DHT22;1272;53.332;9.860;2023-05-24T15:29:52;16.00;99.90
2523;DHT22;1272;53.332;9.860;2023-05-24T15:32:23;16.00;99.90
2523;DHT22;1272;53.332;9.860;2023-05-24T15:34:49;16.00;99.90
2523;DHT22;1272;53.332;9.860;2023-05-24T15:37:15;15.90;99.90
2523;DHT22;1272;53.332;9.860;2023-05-24T15:39:44;16.00;99.90
2523;DHT22;1272;53.332;9.860;2023-05-24T15:42:09;16.20;99.90
2523;DHT22;1272;53.332;9.860;2023-05-24T15:44:35;16.20;99.90
2523;DHT22;1272;53.332;9.860;2023-05-24T15:47:02;16.20;99.90
2523;DHT22;1272;53.332;9.860;2023-05-24T15:49:27;16.10;99.90
2523;DHT22;1272;53.332;9.860;2023-05-24T15:51:53;16.10;72.60
2523;DHT22;1272;53.332;9.860;2023-05-24T15:54:19;16.10;97.40
2523;DHT22;1272;53.332;9.860;2023-05-24T15:56:44;16.10;70.90
2523;DHT22;1272;53.332;9.860;2023-05-24T15:59:11;16.20;99.90
2523;DHT22;1272;53.332;9.860;2023-05-24T16:01:36;16.40;99.90
2523;DHT22;1272;53.332;9.860;2023-05-24T16:04:02;16.40;99.90
2523;DHT22;1272;53.332;9.860;2023-05-24T16:06:28;16.50;1.00
2523;DHT22;1272;53.332;9.860;2023-05-24T16:08:53;16.60;1.00
2523;DHT22;1272;53.332;9.860;2023-05-24T16:11:19;16.70;1.00
2523;DHT22;1272;53.332;9.860;2023-05-24T16:13:45;16.80;1.00
2523;DHT22;1272;53.332;9.860;2023-05-24T16:16:11;16.60;1.00
2523;DHT22;1272;53.332;9.860;2023-05-24T16:18:36;16.50;1.00
2523;DHT22;1272;53.332;9.860;2023-05-24T16:21:02;16.50;1.00
2523;DHT22;1272;53.332;9.860;2023-05-24T16:23:28;16.60;1.00
2523;DHT22;1272;53.332;9.860;2023-05-24T16:25:54;16.80;1.00
2523;DHT22;1272;53.332;9.860;2023-05-24T16:28:20;17.10;1.00
2523;DHT22;1272;53.332;9.860;2023-05-24T16:30:49;17.40;1.00
2523;DHT22;1272;53.332;9.860;2023-05-24T16:33:17;17.50;99.90
2523;DHT22;1272;53.332;9.860;2023-05-24T16:35:42;17.40;99.90
2523;DHT22;1272;53.332;9.860;2023-05-24T16:38:08;17.30;99.90
2523;DHT22;1272;53.332;9.860;2023-05-24T16:40:34;17.20;1.00
2523;DHT22;1272;53.332;9.860;2023-05-24T16:42:59;17.20;1.00
2523;DHT22;1272;53.332;9.860;2023-05-24T16:45:25;17.30;1.00
2523;DHT22;1272;53.332;9.860;2023-05-24T16:47:51;17.20;1.00
2523;DHT22;1272;53.332;9.860;2023-05-24T16:50:16;17.10;1.00
2523;DHT22;1272;53.332;9.860;2023-05-24T16:52:43;16.80;1.00
2523;DHT22;1272;53.332;9.860;2023-05-24T16:55:13;16.80;1.00
2523;DHT22;1272;53.332;9.860;2023-05-24T16:57:40;16.70;1.00
2523;DHT22;1272;53.332;9.860;2023-05-24T17:00:07;16.70;1.00
2523;DHT22;1272;53.332;9.860;2023-05-24T17:02:33;16.50;1.00
2523;DHT22;1272;53.332;9.860;2023-05-24T17:04:59;16.50;1.00
2523;DHT22;1272;53.332;9.860;2023-05-24T17:07:25;16.50;1.00
2523;DHT22;1272;53.332;9.860;2023-05-24T17:09:52;16.40;1.00
2523;DHT22;1272;53.332;9.860;2023-05-24T17:12:18;16.40;1.00
2523;DHT22;1272;53.332;9.860;2023-05-24T17:14:45;16.40;1.00
2523;DHT22;1272;53.332;9.860;2023-05-24T17:17:11;16.30;1.00
2523;DHT22;1272;53.332;9.860;2023-05-24T17:19:36;16.20;1.00
2523;DHT22;1272;53.332;9.860;2023-05-24T17:22:03;16.20;1.00
2523;DHT22;1272;53.332;9.860;2023-05-24T17:24:30;16.20;1.00
2523;DHT22;1272;53.332;9.860;2023-05-24T17:26:56;16.10;1.00
2523;DHT22;1272;53.332;9.860;2023-05-24T17:29:21;16.10;1.00
2523;DHT22;1272;53.332;9.860;2023-05-24T17:31:48;16.10;1.00
2523;DHT22;1272;53.332;9.860;2023-05-24T17:34:14;16.10;1.00
2523;DHT22;1272;53.332;9.860;2023-05-24T17:36:40;16.20;1.00
2523;DHT22;1272;53.332;9.860;2023-05-24T17:39:06;16.30;1.00
2523;DHT22;1272;53.332;9.860;2023-05-24T17:41:32;16.30;1.00
2523;DHT22;1272;53.332;9.860;2023-05-24T17:43:58;16.30;1.00
2523;DHT22;1272;53.332;9.860;2023-05-24T17:46:25;16.20;1.00
2523;DHT22;1272;53.332;9.860;2023-05-24T17:48:51;16.20;1.00
2523;DHT22;1272;53.332;9.860;2023-05-24T17:51:17;16.10;1.00
2523;DHT22;1272;53.332;9.860;2023-05-24T17:53:46;16.00;1.00
2523;DHT22;1272;53.332;9.860;2023-05-24T17:56:12;16.00;1.00
2523;DHT22;1272;53.332;9.860;2023-05-24T17:58:38;15.90;1.00
2523;DHT22;1272;53.332;9.860;2023-05-24T18:01:05;15.90;1.00
2523;DHT22;1272;53.332;9.860;2023-05-24T18:03:31;15.80;1.00
2523;DHT22;1272;53.332;9.860;2023-05-24T18:05:58;15.80;1.00
2523;DHT22;1272;53.332;9.860;2023-05-24T18:08:23;15.70;1.00
2523;DHT22;1272;53.332;9.860;2023-05-24T18:10:52;15.60;1.00
2523;DHT22;1272;53.332;9.860;2023-05-24T18:13:18;15.60;1.00